3MY weather

Mount Hawley Auxiliary Airport
Peoria, Illinois, United States

Public forecast

Using degrees Fahrenheit for public forecast. Weather courtesy of forecast.io.

METAR (pilot weather report)

Closest report is General Wayne A. Downing Peoria International Airport, 8.7 nm (16.1 km) SSW. Retrieved 2019/06/18 21:54 UTC (9 minutes ago):

KPIA 182154Z 00000KT 10SM CLR 27/16 A2986 RMK AO2 SLP108 T02720156

TAF (pilot weather forecast)

Closest forecast is General Wayne A. Downing Peoria International Airport, 8.7 nm (16.1 km) SSW. Retrieved 2019/06/18 18:30 UTC (4 hours ago):

TAF KPIA 181728Z 1818/1918 VRB04KT P6SM SCT035 FM191500 06006KT P6SM BKN100 FM191700 09005KT P6SM VCSH SCT025 BKN040